M/V Crosby Hustler — WDA3941 — position and weather

sailwx.info

Track history (hours):
 
Tides and Currents Weather Stations Pressure Air Temp Water Temp Dewpoint Dewpoint Depression Visibility Wind Speed Wind Dir Waves Ship Positions

M/V Crosby Hustler

More information available from US FCC via Universal Licensing System and Coast Guard Vessel Documentation Center.

Last reported at 2014-Sep-20 08:16 UTC. Time now 2014-Sep-22 12:16 UTC.
Position N 29°30' W 094°52'.

Length 18 m; draft 9 m.

Type: Tug. MMSI: 366804030.

Date/timePositionNaut miles runAvg speedWind from/ knotsBaromVisibWave heightAir tempDewpointWater temp
2014-Sep-20 08:16N 29°30' W 094°52'4 4.6
2014-Sep-20 07:30N 29°33' W 094°55'5 5.1
2014-Sep-20 06:32N 29°37' W 094°58'6 5.6
2014-Sep-20 05:32N 29°42' W 095°01'6 1.1
2014-Sep-20 00:08N 29°46' W 095°06'0 0.0
2014-Sep-19 23:32N 29°46' W 095°06'2 0.2
2014-Sep-19 12:27N 29°48' W 095°04'0 0.0
2014-Sep-19 05:33N 29°48' W 095°04'0 0.0
2014-Sep-19 03:09N 29°48' W 095°04'0 0.0
2014-Sep-19 01:15N 29°48' W 095°04'1 0.9
2014-Sep-19 00:27N 29°47' W 095°04'2 0.8
2014-Sep-18 22:25N 29°47' W 095°06'0 0.1
2014-Sep-18 21:17N 29°47' W 095°06'0 0.0
2014-Sep-18 20:28N 29°47' W 095°06'0 0.0
2014-Sep-18 19:31N 29°47' W 095°06'0 0.0
2014-Sep-18 18:22N 29°47' W 095°06'0 0.0
2014-Sep-18 17:31N 29°47' W 095°06'1 0.7
2014-Sep-18 16:33N 29°46' W 095°06'2 1.9
2014-Sep-18 15:33N 29°47' W 095°04'1 0.6
2014-Sep-18 14:32N 29°48' W 095°04'0 0.0
2014-Sep-18 13:28N 29°48' W 095°04'0 0.0
2014-Sep-18 12:22N 29°48' W 095°04'0 0.0
2014-Sep-18 09:31N 29°47' W 095°04'4 4.2
2014-Sep-18 08:33N 29°44' W 095°02'6 6.0
2014-Sep-18 07:33N 29°39' W 094°58'7 6.8
2014-Sep-18 06:33N 29°33' W 094°54'9 7.2
2014-Sep-18 05:17N 29°25' W 094°49'  
2014-Sep-14 07:33N 29°31' W 094°53'5 5.3
2014-Sep-14 06:33N 29°35' W 094°56'6 5.6
2014-Sep-14 05:33N 29°40' W 094°59'5 5.0
2014-Sep-14 04:33N 29°44' W 095°03'5 4.2
2014-Sep-14 03:28N 29°44' W 095°08'5 5.0
2014-Sep-14 02:33N 29°43' W 095°13'1 0.0
2014-Sep-12 22:23N 29°43' W 095°14'2 0.4
2014-Sep-12 17:29N 29°44' W 095°12'5 5.1
2014-Sep-12 16:33N 29°44' W 095°07'4 4.2
2014-Sep-12 15:33N 29°48' W 095°04'0 0.0
2014-Sep-12 14:21N 29°48' W 095°04'0 0.0
2014-Sep-12 12:33N 29°48' W 095°04'0 0.0
2014-Sep-12 11:30N 29°48' W 095°04'0 0.0
2014-Sep-12 10:30N 29°48' W 095°04'0 0.0
2014-Sep-12 09:33N 29°48' W 095°04'0 0.0
2014-Sep-12 08:24N 29°48' W 095°04'0 0.0
2014-Sep-12 07:30N 29°48' W 095°04'0 0.0
2014-Sep-12 06:30N 29°48' W 095°04'0 0.0
2014-Sep-12 05:12N 29°48' W 095°04'0 0.0
2014-Sep-12 04:27N 29°48' W 095°04'0 0.0
2014-Sep-12 03:24N 29°48' W 095°04'0 0.0
2014-Sep-12 02:33N 29°48' W 095°04'0 0.0
2014-Sep-12 01:27N 29°48' W 095°04'0 0.0
2014-Sep-12 00:22N 29°48' W 095°04'2 1.1
2014-Sep-11 22:04N 29°46' W 095°06'2 1.1
2014-Sep-11 20:33N 29°47' W 095°04'1 0.7
2014-Sep-11 19:30N 29°48' W 095°04'0 0.0
2014-Sep-11 18:21N 29°48' W 095°04'0 0.1
2014-Sep-11 17:27N 29°48' W 095°04'0 0.0
2014-Sep-11 15:07N 29°48' W 095°04'0 0.0
2014-Sep-11 13:21N 29°48' W 095°04'2 3.0
2014-Sep-11 12:32N 29°46' W 095°06'2 2.0
2014-Sep-11 11:18N 29°48' W 095°04'0 0.0
2014-Sep-11 10:31N 29°48' W 095°04'0 0.0
2014-Sep-11 09:31N 29°48' W 095°04'0 0.0
2014-Sep-11 08:31N 29°48' W 095°04'0 0.0
2014-Sep-11 07:31N 29°48' W 095°04'0 0.0
2014-Sep-11 06:22N 29°48' W 095°04'0 0.0
2014-Sep-11 05:31N 29°48' W 095°04'0 0.0
2014-Sep-11 04:31N 29°48' W 095°04'0 0.0
2014-Sep-11 03:25N 29°48' W 095°04'2 0.3
2014-Sep-10 22:25N 29°46' W 095°05'5 5.3
2014-Sep-10 21:33N 29°43' W 095°01'6 5.8
2014-Sep-10 20:34N 29°38' W 094°58'6 6.3
2014-Sep-10 19:33N 29°32' W 094°54'6 5.9
2014-Sep-10 18:32N 29°27' W 094°51'6 5.5
2014-Sep-10 17:27N 29°22' W 094°48'  
Track history (hours):
 
Tides and Currents Weather Stations Pressure Air Temp Water Temp Dewpoint Dewpoint Depression Visibility Wind Speed Wind Dir Waves Ship Positions

M/V Crosby Hustler

More information available from US FCC via Universal Licensing System and Coast Guard Vessel Documentation Center.

Last reported at 2014-Sep-20 08:16 UTC. Time now 2014-Sep-22 12:16 UTC.
Position N 29°30' W 094°52'.

Length 18 m; draft 9 m.

Type: Tug. MMSI: 366804030.

Date/timePositionNaut miles runAvg speedWind from/ knotsBaromVisibWave heightAir tempDewpointWater temp
2014-Sep-20 08:16N 29°30' W 094°52'4 4.6
2014-Sep-20 07:30N 29°33' W 094°55'5 5.1
2014-Sep-20 06:32N 29°37' W 094°58'6 5.6
2014-Sep-20 05:32N 29°42' W 095°01'6 1.1
2014-Sep-20 00:08N 29°46' W 095°06'0 0.0
2014-Sep-19 23:32N 29°46' W 095°06'2 0.2
2014-Sep-19 12:27N 29°48' W 095°04'0 0.0
2014-Sep-19 05:33N 29°48' W 095°04'0 0.0
2014-Sep-19 03:09N 29°48' W 095°04'0 0.0
2014-Sep-19 01:15N 29°48' W 095°04'1 0.9
2014-Sep-19 00:27N 29°47' W 095°04'2 0.8
2014-Sep-18 22:25N 29°47' W 095°06'0 0.1
2014-Sep-18 21:17N 29°47' W 095°06'0 0.0
2014-Sep-18 20:28N 29°47' W 095°06'0 0.0
2014-Sep-18 19:31N 29°47' W 095°06'0 0.0
2014-Sep-18 18:22N 29°47' W 095°06'0 0.0
2014-Sep-18 17:31N 29°47' W 095°06'1 0.7
2014-Sep-18 16:33N 29°46' W 095°06'2 1.9
2014-Sep-18 15:33N 29°47' W 095°04'1 0.6
2014-Sep-18 14:32N 29°48' W 095°04'0 0.0
2014-Sep-18 13:28N 29°48' W 095°04'0 0.0
2014-Sep-18 12:22N 29°48' W 095°04'0 0.0
2014-Sep-18 09:31N 29°47' W 095°04'4 4.2
2014-Sep-18 08:33N 29°44' W 095°02'6 6.0
2014-Sep-18 07:33N 29°39' W 094°58'7 6.8
2014-Sep-18 06:33N 29°33' W 094°54'9 7.2
2014-Sep-18 05:17N 29°25' W 094°49'  
2014-Sep-14 07:33N 29°31' W 094°53'5 5.3
2014-Sep-14 06:33N 29°35' W 094°56'6 5.6
2014-Sep-14 05:33N 29°40' W 094°59'5 5.0
2014-Sep-14 04:33N 29°44' W 095°03'5 4.2
2014-Sep-14 03:28N 29°44' W 095°08'5 5.0
2014-Sep-14 02:33N 29°43' W 095°13'1 0.0
2014-Sep-12 22:23N 29°43' W 095°14'2 0.4
2014-Sep-12 17:29N 29°44' W 095°12'5 5.1
2014-Sep-12 16:33N 29°44' W 095°07'4 4.2
2014-Sep-12 15:33N 29°48' W 095°04'0 0.0
2014-Sep-12 14:21N 29°48' W 095°04'0 0.0
2014-Sep-12 12:33N 29°48' W 095°04'0 0.0
2014-Sep-12 11:30N 29°48' W 095°04'0 0.0
2014-Sep-12 10:30N 29°48' W 095°04'0 0.0
2014-Sep-12 09:33N 29°48' W 095°04'0 0.0
2014-Sep-12 08:24N 29°48' W 095°04'0 0.0
2014-Sep-12 07:30N 29°48' W 095°04'0 0.0
2014-Sep-12 06:30N 29°48' W 095°04'0 0.0
2014-Sep-12 05:12N 29°48' W 095°04'0 0.0
2014-Sep-12 04:27N 29°48' W 095°04'0 0.0
2014-Sep-12 03:24N 29°48' W 095°04'0 0.0
2014-Sep-12 02:33N 29°48' W 095°04'0 0.0
2014-Sep-12 01:27N 29°48' W 095°04'0 0.0
2014-Sep-12 00:22N 29°48' W 095°04'2 1.1
2014-Sep-11 22:04N 29°46' W 095°06'2 1.1
2014-Sep-11 20:33N 29°47' W 095°04'1 0.7
2014-Sep-11 19:30N 29°48' W 095°04'0 0.0
2014-Sep-11 18:21N 29°48' W 095°04'0 0.1
2014-Sep-11 17:27N 29°48' W 095°04'0 0.0
2014-Sep-11 15:07N 29°48' W 095°04'0 0.0
2014-Sep-11 13:21N 29°48' W 095°04'2 3.0
2014-Sep-11 12:32N 29°46' W 095°06'2 2.0
2014-Sep-11 11:18N 29°48' W 095°04'0 0.0
2014-Sep-11 10:31N 29°48' W 095°04'0 0.0
2014-Sep-11 09:31N 29°48' W 095°04'0 0.0
2014-Sep-11 08:31N 29°48' W 095°04'0 0.0
2014-Sep-11 07:31N 29°48' W 095°04'0 0.0
2014-Sep-11 06:22N 29°48' W 095°04'0 0.0
2014-Sep-11 05:31N 29°48' W 095°04'0 0.0
2014-Sep-11 04:31N 29°48' W 095°04'0 0.0
2014-Sep-11 03:25N 29°48' W 095°04'2 0.3
2014-Sep-10 22:25N 29°46' W 095°05'5 5.3
2014-Sep-10 21:33N 29°43' W 095°01'6 5.8
2014-Sep-10 20:34N 29°38' W 094°58'6 6.3
2014-Sep-10 19:33N 29°32' W 094°54'6 5.9
2014-Sep-10 18:32N 29°27' W 094°51'6 5.5
2014-Sep-10 17:27N 29°22' W 094°48'  

Dump ship's entire track history